sensor_id;sensor_type;location;lat;lon;timestamp;temperature;humidity
20946;DHT22;10632;51.276;7.116;2023-12-20T00:00:23;6.50;99.90
20946;DHT22;10632;51.276;7.116;2023-12-20T00:02:50;6.40;99.90
20946;DHT22;10632;51.276;7.116;2023-12-20T00:05:17;6.30;99.90
20946;DHT22;10632;51.276;7.116;2023-12-20T00:07:44;6.30;99.90
20946;DHT22;10632;51.276;7.116;2023-12-20T00:10:11;6.30;99.90
20946;DHT22;10632;51.276;7.116;2023-12-20T00:12:40;6.20;99.90
20946;DHT22;10632;51.276;7.116;2023-12-20T00:15:07;6.20;99.90
20946;DHT22;10632;51.276;7.116;2023-12-20T00:17:34;6.20;99.90
20946;DHT22;10632;51.276;7.116;2023-12-20T00:20:01;6.20;99.90
20946;DHT22;10632;51.276;7.116;2023-12-20T00:22:28;6.10;99.90
20946;DHT22;10632;51.276;7.116;2023-12-20T00:24:55;6.10;99.90
20946;DHT22;10632;51.276;7.116;2023-12-20T00:27:22;6.10;99.90
20946;DHT22;10632;51.276;7.116;2023-12-20T00:29:50;6.10;99.90
20946;DHT22;10632;51.276;7.116;2023-12-20T00:32:20;6.10;99.90
20946;DHT22;10632;51.276;7.116;2023-12-20T00:34:47;6.10;99.90
20946;DHT22;10632;51.276;7.116;2023-12-20T00:37:13;6.10;99.90
20946;DHT22;10632;51.276;7.116;2023-12-20T00:39:40;6.10;99.90
20946;DHT22;10632;51.276;7.116;2023-12-20T00:42:07;6.10;99.90
20946;DHT22;10632;51.276;7.116;2023-12-20T00:44:34;6.20;99.90
20946;DHT22;10632;51.276;7.116;2023-12-20T00:47:03;6.10;99.90
20946;DHT22;10632;51.276;7.116;2023-12-20T00:49:30;6.10;99.90
20946;DHT22;10632;51.276;7.116;2023-12-20T00:51:57;6.10;99.90
20946;DHT22;10632;51.276;7.116;2023-12-20T00:54:24;6.10;99.90
20946;DHT22;10632;51.276;7.116;2023-12-20T00:56:51;6.10;99.90
20946;DHT22;10632;51.276;7.116;2023-12-20T00:59:18;6.10;99.90
20946;DHT22;10632;51.276;7.116;2023-12-20T01:01:45;6.00;99.90
20946;DHT22;10632;51.276;7.116;2023-12-20T01:04:13;6.00;99.90
20946;DHT22;10632;51.276;7.116;2023-12-20T01:06:40;6.00;99.90
20946;DHT22;10632;51.276;7.116;2023-12-20T01:09:07;5.90;99.90
20946;DHT22;10632;51.276;7.116;2023-12-20T01:11:34;5.90;99.90
20946;DHT22;10632;51.276;7.116;2023-12-20T01:14:01;5.80;99.90
20946;DHT22;10632;51.276;7.116;2023-12-20T01:16:28;5.90;99.90
20946;DHT22;10632;51.276;7.116;2023-12-20T01:18:54;5.90;99.90
20946;DHT22;10632;51.276;7.116;2023-12-20T01:21:23;5.90;99.90
20946;DHT22;10632;51.276;7.116;2023-12-20T01:23:50;5.90;99.90
20946;DHT22;10632;51.276;7.116;2023-12-20T01:26:17;5.80;99.90
20946;DHT22;10632;51.276;7.116;2023-12-20T01:28:43;5.80;99.90
20946;DHT22;10632;51.276;7.116;2023-12-20T01:31:10;5.80;99.90
20946;DHT22;10632;51.276;7.116;2023-12-20T01:33:37;5.80;99.90
20946;DHT22;10632;51.276;7.116;2023-12-20T01:36:04;5.80;99.90
20946;DHT22;10632;51.276;7.116;2023-12-20T01:38:33;5.80;99.90
20946;DHT22;10632;51.276;7.116;2023-12-20T01:41:01;5.80;99.90
20946;DHT22;10632;51.276;7.116;2023-12-20T01:43:29;5.80;99.90
20946;DHT22;10632;51.276;7.116;2023-12-20T01:45:57;5.70;99.90
20946;DHT22;10632;51.276;7.116;2023-12-20T01:48:25;5.70;99.90
20946;DHT22;10632;51.276;7.116;2023-12-20T01:50:52;5.70;99.90
20946;DHT22;10632;51.276;7.116;2023-12-20T01:53:21;5.70;99.90
20946;DHT22;10632;51.276;7.116;2023-12-20T01:55:52;5.70;99.90
20946;DHT22;10632;51.276;7.116;2023-12-20T01:58:21;5.70;99.90
20946;DHT22;10632;51.276;7.116;2023-12-20T02:00:48;5.70;99.90
20946;DHT22;10632;51.276;7.116;2023-12-20T02:03:16;5.70;99.90
20946;DHT22;10632;51.276;7.116;2023-12-20T02:05:44;5.70;99.90
20946;DHT22;10632;51.276;7.116;2023-12-20T02:08:12;5.70;99.90
20946;DHT22;10632;51.276;7.116;2023-12-20T02:10:40;5.70;99.90
20946;DHT22;10632;51.276;7.116;2023-12-20T02:13:09;5.70;99.90
20946;DHT22;10632;51.276;7.116;2023-12-20T02:15:36;5.60;99.90
20946;DHT22;10632;51.276;7.116;2023-12-20T02:18:04;5.50;99.90
20946;DHT22;10632;51.276;7.116;2023-12-20T02:20:30;5.50;99.90
20946;DHT22;10632;51.276;7.116;2023-12-20T02:22:59;5.50;99.90
20946;DHT22;10632;51.276;7.116;2023-12-20T02:25:26;5.40;99.90
20946;DHT22;10632;51.276;7.116;2023-12-20T02:27:52;5.40;99.90
20946;DHT22;10632;51.276;7.116;2023-12-20T02:30:19;5.40;99.90
20946;DHT22;10632;51.276;7.116;2023-12-20T02:32:47;5.30;99.90
20946;DHT22;10632;51.276;7.116;2023-12-20T02:35:14;5.30;99.90
20946;DHT22;10632;51.276;7.116;2023-12-20T02:37:41;5.30;99.90
20946;DHT22;10632;51.276;7.116;2023-12-20T02:40:09;5.30;99.90
20946;DHT22;10632;51.276;7.116;2023-12-20T02:42:37;5.30;99.90
20946;DHT22;10632;51.276;7.116;2023-12-20T02:45:04;5.20;99.90
20946;DHT22;10632;51.276;7.116;2023-12-20T02:47:31;5.20;99.90
20946;DHT22;10632;51.276;7.116;2023-12-20T02:49:58;5.20;99.90
20946;DHT22;10632;51.276;7.116;2023-12-20T02:52:25;5.20;99.90
20946;DHT22;10632;51.276;7.116;2023-12-20T02:54:52;5.20;99.90
20946;DHT22;10632;51.276;7.116;2023-12-20T02:57:20;5.20;99.90
20946;DHT22;10632;51.276;7.116;2023-12-20T02:59:47;5.20;99.90
20946;DHT22;10632;51.276;7.116;2023-12-20T03:02:14;5.20;99.90
20946;DHT22;10632;51.276;7.116;2023-12-20T03:04:41;5.10;99.90
20946;DHT22;10632;51.276;7.116;2023-12-20T03:07:08;5.10;99.90
20946;DHT22;10632;51.276;7.116;2023-12-20T03:09:34;5.10;99.90
20946;DHT22;10632;51.276;7.116;2023-12-20T03:12:01;5.10;99.90
20946;DHT22;10632;51.276;7.116;2023-12-20T03:14:30;5.10;99.90
20946;DHT22;10632;51.276;7.116;2023-12-20T03:16:57;5.00;99.90
20946;DHT22;10632;51.276;7.116;2023-12-20T03:19:24;5.00;99.90
20946;DHT22;10632;51.276;7.116;2023-12-20T03:21:51;5.00;99.90
20946;DHT22;10632;51.276;7.116;2023-12-20T03:24:19;5.00;99.90
20946;DHT22;10632;51.276;7.116;2023-12-20T03:26:46;5.00;99.90
20946;DHT22;10632;51.276;7.116;2023-12-20T03:29:12;5.00;99.90
20946;DHT22;10632;51.276;7.116;2023-12-20T03:31:41;5.00;99.90
20946;DHT22;10632;51.276;7.116;2023-12-20T03:34:07;5.00;99.90
20946;DHT22;10632;51.276;7.116;2023-12-20T03:36:34;4.90;99.90
20946;DHT22;10632;51.276;7.116;2023-12-20T03:39:01;4.90;99.90
20946;DHT22;10632;51.276;7.116;2023-12-20T03:41:28;4.90;99.90
20946;DHT22;10632;51.276;7.116;2023-12-20T03:43:55;4.90;99.90
20946;DHT22;10632;51.276;7.116;2023-12-20T03:46:22;4.90;99.90
20946;DHT22;10632;51.276;7.116;2023-12-20T03:48:52;4.90;99.90
20946;DHT22;10632;51.276;7.116;2023-12-20T03:51:19;4.90;99.90
20946;DHT22;10632;51.276;7.116;2023-12-20T03:53:46;4.80;99.90
20946;DHT22;10632;51.276;7.116;2023-12-20T03:56:13;4.80;99.90
20946;DHT22;10632;51.276;7.116;2023-12-20T03:58:40;4.90;99.90
20946;DHT22;10632;51.276;7.116;2023-12-20T04:01:09;4.80;99.90
20946;DHT22;10632;51.276;7.116;2023-12-20T04:03:37;4.90;99.90
20946;DHT22;10632;51.276;7.116;2023-12-20T04:06:06;4.80;99.90
20946;DHT22;10632;51.276;7.116;2023-12-20T04:08:35;4.80;99.90
20946;DHT22;10632;51.276;7.116;2023-12-20T04:11:02;4.80;99.90
20946;DHT22;10632;51.276;7.116;2023-12-20T04:13:29;4.80;99.90
20946;DHT22;10632;51.276;7.116;2023-12-20T04:15:56;4.80;99.90
20946;DHT22;10632;51.276;7.116;2023-12-20T04:18:23;4.80;99.90
20946;DHT22;10632;51.276;7.116;2023-12-20T04:20:50;4.80;99.90
20946;DHT22;10632;51.276;7.116;2023-12-20T04:23:18;4.80;99.90
20946;DHT22;10632;51.276;7.116;2023-12-20T04:25:45;4.80;99.90
20946;DHT22;10632;51.276;7.116;2023-12-20T04:28:16;4.80;99.90
20946;DHT22;10632;51.276;7.116;2023-12-20T04:30:44;4.80;99.90
20946;DHT22;10632;51.276;7.116;2023-12-20T04:35:57;4.80;99.90
20946;DHT22;10632;51.276;7.116;2023-12-20T04:38:27;4.80;99.90
20946;DHT22;10632;51.276;7.116;2023-12-20T04:40:54;4.80;99.90
20946;DHT22;10632;51.276;7.116;2023-12-20T04:43:21;4.80;99.90
20946;DHT22;10632;51.276;7.116;2023-12-20T04:45:48;4.80;99.90
20946;DHT22;10632;51.276;7.116;2023-12-20T04:48:16;4.80;99.90
20946;DHT22;10632;51.276;7.116;2023-12-20T04:50:51;4.80;99.90
20946;DHT22;10632;51.276;7.116;2023-12-20T04:53:19;4.80;99.90
20946;DHT22;10632;51.276;7.116;2023-12-20T04:55:48;4.70;99.90
20946;DHT22;10632;51.276;7.116;2023-12-20T04:58:15;4.70;99.90
20946;DHT22;10632;51.276;7.116;2023-12-20T05:00:42;4.70;99.90
20946;DHT22;10632;51.276;7.116;2023-12-20T05:03:16;4.70;99.90
20946;DHT22;10632;51.276;7.116;2023-12-20T05:05:43;4.70;99.90
20946;DHT22;10632;51.276;7.116;2023-12-20T05:08:12;4.70;99.90
20946;DHT22;10632;51.276;7.116;2023-12-20T05:10:39;4.70;99.90
20946;DHT22;10632;51.276;7.116;2023-12-20T05:13:08;4.70;99.90
20946;DHT22;10632;51.276;7.116;2023-12-20T05:15:35;4.70;99.90
20946;DHT22;10632;51.276;7.116;2023-12-20T05:18:03;4.70;99.90
20946;DHT22;10632;51.276;7.116;2023-12-20T05:20:30;4.70;99.90
20946;DHT22;10632;51.276;7.116;2023-12-20T05:22:57;4.70;99.90
20946;DHT22;10632;51.276;7.116;2023-12-20T05:25:25;4.70;99.90
20946;DHT22;10632;51.276;7.116;2023-12-20T05:27:52;4.60;99.90
20946;DHT22;10632;51.276;7.116;2023-12-20T05:30:23;4.70;99.90
20946;DHT22;10632;51.276;7.116;2023-12-20T05:32:50;4.60;99.90
20946;DHT22;10632;51.276;7.116;2023-12-20T05:35:18;4.70;99.90
20946;DHT22;10632;51.276;7.116;2023-12-20T05:37:47;4.60;99.90
20946;DHT22;10632;51.276;7.116;2023-12-20T05:40:14;4.70;99.90
20946;DHT22;10632;51.276;7.116;2023-12-20T05:42:42;4.70;99.90
20946;DHT22;10632;51.276;7.116;2023-12-20T05:45:09;4.70;99.90
20946;DHT22;10632;51.276;7.116;2023-12-20T05:47:38;4.70;99.90
20946;DHT22;10632;51.276;7.116;2023-12-20T05:50:06;4.70;99.90
20946;DHT22;10632;51.276;7.116;2023-12-20T05:52:33;4.70;99.90
20946;DHT22;10632;51.276;7.116;2023-12-20T05:55:00;4.70;99.90
20946;DHT22;10632;51.276;7.116;2023-12-20T05:57:27;4.70;99.90
20946;DHT22;10632;51.276;7.116;2023-12-20T05:59:54;4.70;99.90
20946;DHT22;10632;51.276;7.116;2023-12-20T06:02:21;4.70;99.90
20946;DHT22;10632;51.276;7.116;2023-12-20T06:04:49;4.70;99.90
20946;DHT22;10632;51.276;7.116;2023-12-20T06:07:19;4.70;99.90
20946;DHT22;10632;51.276;7.116;2023-12-20T06:09:46;4.70;99.90
20946;DHT22;10632;51.276;7.116;2023-12-20T06:12:13;4.70;99.90
20946;DHT22;10632;51.276;7.116;2023-12-20T06:14:40;4.70;99.90
20946;DHT22;10632;51.276;7.116;2023-12-20T06:17:07;4.70;99.90
20946;DHT22;10632;51.276;7.116;2023-12-20T06:19:33;4.70;99.90
20946;DHT22;10632;51.276;7.116;2023-12-20T06:22:02;4.70;99.90
20946;DHT22;10632;51.276;7.116;2023-12-20T06:24:29;4.70;99.90
20946;DHT22;10632;51.276;7.116;2023-12-20T06:26:55;4.70;99.90
20946;DHT22;10632;51.276;7.116;2023-12-20T06:29:25;4.60;99.90
20946;DHT22;10632;51.276;7.116;2023-12-20T06:31:51;4.60;99.90
20946;DHT22;10632;51.276;7.116;2023-12-20T06:34:18;4.60;99.90
20946;DHT22;10632;51.276;7.116;2023-12-20T06:36:48;4.60;99.90
20946;DHT22;10632;51.276;7.116;2023-12-20T06:39:17;4.60;99.90
20946;DHT22;10632;51.276;7.116;2023-12-20T06:41:43;4.60;99.90
20946;DHT22;10632;51.276;7.116;2023-12-20T06:44:10;4.60;99.90
20946;DHT22;10632;51.276;7.116;2023-12-20T06:46:37;4.60;99.90
20946;DHT22;10632;51.276;7.116;2023-12-20T06:49:04;4.60;99.90
20946;DHT22;10632;51.276;7.116;2023-12-20T06:51:31;4.60;99.90
20946;DHT22;10632;51.276;7.116;2023-12-20T06:53:58;4.60;99.90
20946;DHT22;10632;51.276;7.116;2023-12-20T06:56:27;4.60;99.90
20946;DHT22;10632;51.276;7.116;2023-12-20T06:58:53;4.60;99.90
20946;DHT22;10632;51.276;7.116;2023-12-20T07:01:20;4.60;99.90
20946;DHT22;10632;51.276;7.116;2023-12-20T07:03:48;4.60;99.90
20946;DHT22;10632;51.276;7.116;2023-12-20T07:06:14;4.60;99.90
20946;DHT22;10632;51.276;7.116;2023-12-20T07:08:42;4.60;99.90
20946;DHT22;10632;51.276;7.116;2023-12-20T07:11:09;4.60;99.90
20946;DHT22;10632;51.276;7.116;2023-12-20T07:13:37;4.70;99.90
20946;DHT22;10632;51.276;7.116;2023-12-20T07:16:04;4.60;99.90
20946;DHT22;10632;51.276;7.116;2023-12-20T07:18:31;4.60;99.90
20946;DHT22;10632;51.276;7.116;2023-12-20T07:20:58;4.70;99.90
20946;DHT22;10632;51.276;7.116;2023-12-20T07:23:25;4.70;99.90
20946;DHT22;10632;51.276;7.116;2023-12-20T07:25:52;4.70;99.90
20946;DHT22;10632;51.276;7.116;2023-12-20T07:28:19;4.70;99.90
20946;DHT22;10632;51.276;7.116;2023-12-20T07:30:47;4.70;99.90
20946;DHT22;10632;51.276;7.116;2023-12-20T07:33:14;4.70;99.90
20946;DHT22;10632;51.276;7.116;2023-12-20T07:35:41;4.80;99.90
20946;DHT22;10632;51.276;7.116;2023-12-20T07:38:08;4.80;99.90
20946;DHT22;10632;51.276;7.116;2023-12-20T07:40:35;4.80;99.90
20946;DHT22;10632;51.276;7.116;2023-12-20T07:43:03;4.80;99.90
20946;DHT22;10632;51.276;7.116;2023-12-20T07:45:29;4.80;99.90
20946;DHT22;10632;51.276;7.116;2023-12-20T07:47:58;4.80;99.90
20946;DHT22;10632;51.276;7.116;2023-12-20T07:50:24;4.80;99.90
20946;DHT22;10632;51.276;7.116;2023-12-20T07:52:51;4.80;99.90
20946;DHT22;10632;51.276;7.116;2023-12-20T07:55:21;4.80;99.90
20946;DHT22;10632;51.276;7.116;2023-12-20T07:57:48;4.80;99.90
20946;DHT22;10632;51.276;7.116;2023-12-20T08:00:16;4.80;99.90
20946;DHT22;10632;51.276;7.116;2023-12-20T08:02:43;4.80;99.90
20946;DHT22;10632;51.276;7.116;2023-12-20T08:05:11;4.90;99.90
20946;DHT22;10632;51.276;7.116;2023-12-20T08:07:39;4.80;99.90
20946;DHT22;10632;51.276;7.116;2023-12-20T08:10:06;4.80;99.90
20946;DHT22;10632;51.276;7.116;2023-12-20T08:12:33;4.80;99.90
20946;DHT22;10632;51.276;7.116;2023-12-20T08:15:01;4.80;99.90
20946;DHT22;10632;51.276;7.116;2023-12-20T08:17:32;4.80;99.90
20946;DHT22;10632;51.276;7.116;2023-12-20T08:19:59;4.90;99.90
20946;DHT22;10632;51.276;7.116;2023-12-20T08:22:27;4.90;99.90
20946;DHT22;10632;51.276;7.116;2023-12-20T08:24:54;4.80;99.90
20946;DHT22;10632;51.276;7.116;2023-12-20T08:27:21;4.90;99.90
20946;DHT22;10632;51.276;7.116;2023-12-20T08:29:48;4.80;99.90
20946;DHT22;10632;51.276;7.116;2023-12-20T08:32:16;4.90;99.90
20946;DHT22;10632;51.276;7.116;2023-12-20T08:34:43;4.90;99.90
20946;DHT22;10632;51.276;7.116;2023-12-20T08:37:10;4.90;99.90
20946;DHT22;10632;51.276;7.116;2023-12-20T08:39:38;4.90;99.90
20946;DHT22;10632;51.276;7.116;2023-12-20T08:42:05;4.90;99.90
20946;DHT22;10632;51.276;7.116;2023-12-20T08:44:32;4.90;99.90
20946;DHT22;10632;51.276;7.116;2023-12-20T08:46:59;4.90;99.90
20946;DHT22;10632;51.276;7.116;2023-12-20T08:49:26;5.00;99.90
20946;DHT22;10632;51.276;7.116;2023-12-20T08:51:53;4.90;99.90
20946;DHT22;10632;51.276;7.116;2023-12-20T08:54:20;5.00;99.90
20946;DHT22;10632;51.276;7.116;2023-12-20T08:56:49;5.00;99.90
20946;DHT22;10632;51.276;7.116;2023-12-20T08:59:16;5.00;99.90
20946;DHT22;10632;51.276;7.116;2023-12-20T09:01:44;5.00;99.90
20946;DHT22;10632;51.276;7.116;2023-12-20T09:04:12;5.00;99.90
20946;DHT22;10632;51.276;7.116;2023-12-20T09:06:38;5.00;99.90
20946;DHT22;10632;51.276;7.116;2023-12-20T09:09:05;5.00;99.90
20946;DHT22;10632;51.276;7.116;2023-12-20T09:11:35;5.00;99.90
20946;DHT22;10632;51.276;7.116;2023-12-20T09:14:04;5.00;99.90
20946;DHT22;10632;51.276;7.116;2023-12-20T09:16:32;5.00;99.90
20946;DHT22;10632;51.276;7.116;2023-12-20T09:19:00;5.00;99.90
20946;DHT22;10632;51.276;7.116;2023-12-20T09:21:30;5.00;99.90
20946;DHT22;10632;51.276;7.116;2023-12-20T09:23:57;5.00;99.90
20946;DHT22;10632;51.276;7.116;2023-12-20T09:26:24;5.00;99.90
20946;DHT22;10632;51.276;7.116;2023-12-20T09:28:51;5.00;99.90
20946;DHT22;10632;51.276;7.116;2023-12-20T09:31:19;5.00;99.90
20946;DHT22;10632;51.276;7.116;2023-12-20T09:33:46;5.00;99.90
20946;DHT22;10632;51.276;7.116;2023-12-20T09:36:13;5.00;99.90
20946;DHT22;10632;51.276;7.116;2023-12-20T09:38:40;5.00;99.90
20946;DHT22;10632;51.276;7.116;2023-12-20T09:41:07;5.00;99.90
20946;DHT22;10632;51.276;7.116;2023-12-20T09:43:37;5.00;99.90
20946;DHT22;10632;51.276;7.116;2023-12-20T09:46:06;5.00;99.90
20946;DHT22;10632;51.276;7.116;2023-12-20T09:48:53;4.90;99.90
20946;DHT22;10632;51.276;7.116;2023-12-20T09:51:29;5.00;99.90
20946;DHT22;10632;51.276;7.116;2023-12-20T09:53:59;5.00;99.90
20946;DHT22;10632;51.276;7.116;2023-12-20T09:56:27;5.00;99.90
20946;DHT22;10632;51.276;7.116;2023-12-20T09:58:54;4.90;99.90
20946;DHT22;10632;51.276;7.116;2023-12-20T10:01:22;4.90;99.90
20946;DHT22;10632;51.276;7.116;2023-12-20T10:03:52;4.90;99.90
20946;DHT22;10632;51.276;7.116;2023-12-20T10:06:21;4.90;99.90
20946;DHT22;10632;51.276;7.116;2023-12-20T10:08:48;5.00;99.90
20946;DHT22;10632;51.276;7.116;2023-12-20T10:11:15;4.90;99.90
20946;DHT22;10632;51.276;7.116;2023-12-20T10:13:42;4.90;99.90
20946;DHT22;10632;51.276;7.116;2023-12-20T10:16:09;4.90;99.90
20946;DHT22;10632;51.276;7.116;2023-12-20T10:18:36;4.90;99.90
20946;DHT22;10632;51.276;7.116;2023-12-20T10:21:06;4.90;99.90
20946;DHT22;10632;51.276;7.116;2023-12-20T10:23:32;4.90;99.90
20946;DHT22;10632;51.276;7.116;2023-12-20T10:26:00;5.00;99.90
20946;DHT22;10632;51.276;7.116;2023-12-20T10:28:33;5.00;99.90
20946;DHT22;10632;51.276;7.116;2023-12-20T10:31:00;5.00;99.90
20946;DHT22;10632;51.276;7.116;2023-12-20T10:33:28;5.00;99.90
20946;DHT22;10632;51.276;7.116;2023-12-20T10:35:56;5.00;99.90
20946;DHT22;10632;51.276;7.116;2023-12-20T10:38:24;5.00;99.90
20946;DHT22;10632;51.276;7.116;2023-12-20T10:40:55;4.90;99.90
20946;DHT22;10632;51.276;7.116;2023-12-20T10:43:24;4.90;99.90
20946;DHT22;10632;51.276;7.116;2023-12-20T10:45:52;5.00;99.90
20946;DHT22;10632;51.276;7.116;2023-12-20T10:48:20;5.00;99.90
20946;DHT22;10632;51.276;7.116;2023-12-20T10:50:48;5.00;99.90
20946;DHT22;10632;51.276;7.116;2023-12-20T10:53:19;5.00;99.90
20946;DHT22;10632;51.276;7.116;2023-12-20T10:55:48;4.90;99.90
20946;DHT22;10632;51.276;7.116;2023-12-20T10:58:16;5.00;99.90
20946;DHT22;10632;51.276;7.116;2023-12-20T11:00:47;4.90;99.90
20946;DHT22;10632;51.276;7.116;2023-12-20T11:03:18;4.90;99.90
20946;DHT22;10632;51.276;7.116;2023-12-20T11:05:50;5.00;99.90
20946;DHT22;10632;51.276;7.116;2023-12-20T11:08:27;4.90;99.90
20946;DHT22;10632;51.276;7.116;2023-12-20T11:11:02;4.90;99.90
20946;DHT22;10632;51.276;7.116;2023-12-20T11:13:34;5.00;99.90
20946;DHT22;10632;51.276;7.116;2023-12-20T11:16:02;4.90;99.90
20946;DHT22;10632;51.276;7.116;2023-12-20T11:18:30;5.00;99.90
20946;DHT22;10632;51.276;7.116;2023-12-20T11:21:01;5.00;99.90
20946;DHT22;10632;51.276;7.116;2023-12-20T11:23:30;5.00;99.90
20946;DHT22;10632;51.276;7.116;2023-12-20T11:26:00;5.00;99.90
20946;DHT22;10632;51.276;7.116;2023-12-20T11:28:28;5.00;99.90
20946;DHT22;10632;51.276;7.116;2023-12-20T11:30:57;5.00;99.90
20946;DHT22;10632;51.276;7.116;2023-12-20T11:33:26;5.00;99.90
20946;DHT22;10632;51.276;7.116;2023-12-20T11:35:55;5.00;99.90
20946;DHT22;10632;51.276;7.116;2023-12-20T11:38:26;5.00;99.90
20946;DHT22;10632;51.276;7.116;2023-12-20T11:40:54;5.00;99.90
20946;DHT22;10632;51.276;7.116;2023-12-20T11:43:34;5.10;99.90
20946;DHT22;10632;51.276;7.116;2023-12-20T11:46:03;5.10;99.90
20946;DHT22;10632;51.276;7.116;2023-12-20T11:48:31;5.00;99.90
20946;DHT22;10632;51.276;7.116;2023-12-20T11:50:58;5.00;99.90
20946;DHT22;10632;51.276;7.116;2023-12-20T11:53:25;5.10;99.90
20946;DHT22;10632;51.276;7.116;2023-12-20T11:55:54;5.00;99.90
20946;DHT22;10632;51.276;7.116;2023-12-20T11:58:21;5.00;99.90
20946;DHT22;10632;51.276;7.116;2023-12-20T12:00:50;5.00;99.90
20946;DHT22;10632;51.276;7.116;2023-12-20T12:03:17;5.00;99.90
20946;DHT22;10632;51.276;7.116;2023-12-20T12:05:48;5.00;99.90
20946;DHT22;10632;51.276;7.116;2023-12-20T12:08:15;5.00;99.90
20946;DHT22;10632;51.276;7.116;2023-12-20T12:10:43;5.00;99.90
20946;DHT22;10632;51.276;7.116;2023-12-20T12:13:10;5.00;99.90
20946;DHT22;10632;51.276;7.116;2023-12-20T12:15:37;5.00;99.90
20946;DHT22;10632;51.276;7.116;2023-12-20T12:18:06;5.00;99.90
20946;DHT22;10632;51.276;7.116;2023-12-20T12:20:33;5.00;99.90
20946;DHT22;10632;51.276;7.116;2023-12-20T12:23:02;5.00;99.90
20946;DHT22;10632;51.276;7.116;2023-12-20T12:25:30;5.00;99.90
20946;DHT22;10632;51.276;7.116;2023-12-20T12:27:58;5.10;99.90
20946;DHT22;10632;51.276;7.116;2023-12-20T12:30:25;5.00;99.90
20946;DHT22;10632;51.276;7.116;2023-12-20T12:32:52;5.10;99.90
20946;DHT22;10632;51.276;7.116;2023-12-20T12:35:21;5.00;99.90
20946;DHT22;10632;51.276;7.116;2023-12-20T12:37:48;5.10;99.90
20946;DHT22;10632;51.276;7.116;2023-12-20T12:40:16;5.10;99.90
20946;DHT22;10632;51.276;7.116;2023-12-20T12:42:44;5.00;99.90
20946;DHT22;10632;51.276;7.116;2023-12-20T12:45:12;5.10;99.90
20946;DHT22;10632;51.276;7.116;2023-12-20T12:47:39;5.00;99.90
20946;DHT22;10632;51.276;7.116;2023-12-20T12:50:07;5.00;99.90
20946;DHT22;10632;51.276;7.116;2023-12-20T12:52:35;5.10;99.90
20946;DHT22;10632;51.276;7.116;2023-12-20T12:55:03;5.00;99.90
20946;DHT22;10632;51.276;7.116;2023-12-20T12:57:31;5.10;99.90
20946;DHT22;10632;51.276;7.116;2023-12-20T12:59:57;5.10;99.90
20946;DHT22;10632;51.276;7.116;2023-12-20T13:02:25;5.10;99.90
20946;DHT22;10632;51.276;7.116;2023-12-20T13:04:51;5.10;99.90
20946;DHT22;10632;51.276;7.116;2023-12-20T13:07:18;5.10;99.90
20946;DHT22;10632;51.276;7.116;2023-12-20T13:09:47;5.10;99.90
20946;DHT22;10632;51.276;7.116;2023-12-20T13:12:13;5.10;99.90
20946;DHT22;10632;51.276;7.116;2023-12-20T13:14:40;5.10;99.90
20946;DHT22;10632;51.276;7.116;2023-12-20T13:17:07;5.10;99.90
20946;DHT22;10632;51.276;7.116;2023-12-20T13:19:36;5.10;99.90
20946;DHT22;10632;51.276;7.116;2023-12-20T13:22:03;5.10;99.90
20946;DHT22;10632;51.276;7.116;2023-12-20T13:24:32;5.10;99.90
20946;DHT22;10632;51.276;7.116;2023-12-20T13:27:01;5.10;99.90
20946;DHT22;10632;51.276;7.116;2023-12-20T13:29:28;5.10;99.90
20946;DHT22;10632;51.276;7.116;2023-12-20T13:31:55;5.10;99.90
20946;DHT22;10632;51.276;7.116;2023-12-20T13:34:22;5.10;99.90
20946;DHT22;10632;51.276;7.116;2023-12-20T13:36:49;5.10;99.90
20946;DHT22;10632;51.276;7.116;2023-12-20T13:39:16;5.10;99.90
20946;DHT22;10632;51.276;7.116;2023-12-20T13:41:43;5.10;99.90
20946;DHT22;10632;51.276;7.116;2023-12-20T13:44:12;5.10;99.90
20946;DHT22;10632;51.276;7.116;2023-12-20T13:46:39;5.10;99.90
20946;DHT22;10632;51.276;7.116;2023-12-20T13:49:06;5.10;99.90
20946;DHT22;10632;51.276;7.116;2023-12-20T13:51:33;5.20;99.90
20946;DHT22;10632;51.276;7.116;2023-12-20T13:54:00;5.20;99.90
20946;DHT22;10632;51.276;7.116;2023-12-20T13:56:29;5.20;99.90
20946;DHT22;10632;51.276;7.116;2023-12-20T13:58:56;5.20;99.90
20946;DHT22;10632;51.276;7.116;2023-12-20T14:01:25;5.20;99.90
20946;DHT22;10632;51.276;7.116;2023-12-20T14:03:52;5.20;99.90
20946;DHT22;10632;51.276;7.116;2023-12-20T14:06:19;5.20;99.90
20946;DHT22;10632;51.276;7.116;2023-12-20T14:08:46;5.20;99.90
20946;DHT22;10632;51.276;7.116;2023-12-20T14:11:14;5.20;99.90
20946;DHT22;10632;51.276;7.116;2023-12-20T14:13:41;5.20;99.90
20946;DHT22;10632;51.276;7.116;2023-12-20T14:16:08;5.20;99.90
20946;DHT22;10632;51.276;7.116;2023-12-20T14:18:37;5.20;99.90
20946;DHT22;10632;51.276;7.116;2023-12-20T14:21:05;5.30;99.90
20946;DHT22;10632;51.276;7.116;2023-12-20T14:23:33;5.30;99.90
20946;DHT22;10632;51.276;7.116;2023-12-20T14:26:00;5.30;99.90
20946;DHT22;10632;51.276;7.116;2023-12-20T14:28:27;5.30;99.90
20946;DHT22;10632;51.276;7.116;2023-12-20T14:30:54;5.30;99.90
20946;DHT22;10632;51.276;7.116;2023-12-20T14:33:21;5.30;99.90
20946;DHT22;10632;51.276;7.116;2023-12-20T14:35:50;5.30;99.90
20946;DHT22;10632;51.276;7.116;2023-12-20T14:38:18;5.30;99.90
20946;DHT22;10632;51.276;7.116;2023-12-20T14:40:44;5.30;99.90
20946;DHT22;10632;51.276;7.116;2023-12-20T14:43:11;5.30;99.90
20946;DHT22;10632;51.276;7.116;2023-12-20T14:45:38;5.40;99.90
20946;DHT22;10632;51.276;7.116;2023-12-20T14:48:06;5.30;99.90
20946;DHT22;10632;51.276;7.116;2023-12-20T14:50:33;5.40;99.90
20946;DHT22;10632;51.276;7.116;2023-12-20T14:53:02;5.40;99.90
20946;DHT22;10632;51.276;7.116;2023-12-20T14:55:29;5.40;99.90
20946;DHT22;10632;51.276;7.116;2023-12-20T14:57:56;5.40;99.90
20946;DHT22;10632;51.276;7.116;2023-12-20T15:00:22;5.40;99.90
20946;DHT22;10632;51.276;7.116;2023-12-20T15:02:49;5.40;99.90
20946;DHT22;10632;51.276;7.116;2023-12-20T15:05:16;5.40;99.90
20946;DHT22;10632;51.276;7.116;2023-12-20T15:07:44;5.50;99.90
20946;DHT22;10632;51.276;7.116;2023-12-20T15:10:14;5.40;99.90
20946;DHT22;10632;51.276;7.116;2023-12-20T15:12:42;5.50;99.90
20946;DHT22;10632;51.276;7.116;2023-12-20T15:15:10;5.50;99.90
20946;DHT22;10632;51.276;7.116;2023-12-20T15:17:37;5.50;99.90
20946;DHT22;10632;51.276;7.116;2023-12-20T15:20:04;5.50;99.90
20946;DHT22;10632;51.276;7.116;2023-12-20T15:22:31;5.50;99.90
20946;DHT22;10632;51.276;7.116;2023-12-20T15:25:00;5.50;99.90
20946;DHT22;10632;51.276;7.116;2023-12-20T15:27:30;5.50;99.90
20946;DHT22;10632;51.276;7.116;2023-12-20T15:29:57;5.50;99.90
20946;DHT22;10632;51.276;7.116;2023-12-20T15:32:25;5.60;99.90
20946;DHT22;10632;51.276;7.116;2023-12-20T15:34:51;5.50;99.90
20946;DHT22;10632;51.276;7.116;2023-12-20T15:37:18;5.60;99.90
20946;DHT22;10632;51.276;7.116;2023-12-20T15:39:45;5.60;99.90
20946;DHT22;10632;51.276;7.116;2023-12-20T15:42:12;5.60;99.90
20946;DHT22;10632;51.276;7.116;2023-12-20T15:44:40;5.60;99.90
20946;DHT22;10632;51.276;7.116;2023-12-20T15:47:07;5.60;99.90
20946;DHT22;10632;51.276;7.116;2023-12-20T15:49:34;5.60;99.90